sensor_id;sensor_type;location;lat;lon;timestamp;pressure;altitude;pressure_sealevel;temperature;humidity
10145;BME280;5113;41.822;23.564;2023-02-28T00:02:24;-11164.72;;;8.33;100.00
10145;BME280;5113;41.822;23.564;2023-02-28T00:05:32;-11163.31;;;8.28;100.00
10145;BME280;5113;41.822;23.564;2023-02-28T00:08:39;-11163.03;;;8.27;100.00
10145;BME280;5113;41.822;23.564;2023-02-28T00:11:46;-11159.09;;;8.13;100.00
10145;BME280;5113;41.822;23.564;2023-02-28T00:14:54;-11159.38;;;8.14;100.00
10145;BME280;5113;41.822;23.564;2023-02-28T00:18:01;-11152.34;;;7.88;100.00
10145;BME280;5113;41.822;23.564;2023-02-28T00:21:09;-11161.75;;;8.22;100.00
10145;BME280;5113;41.822;23.564;2023-02-28T00:24:15;-11160.34;;;8.17;100.00
10145;BME280;5113;41.822;23.564;2023-02-28T00:27:22;-11153.88;;;7.94;100.00
10145;BME280;5113;41.822;23.564;2023-02-28T00:30:28;-11153.88;;;7.94;100.00
10145;BME280;5113;41.822;23.564;2023-02-28T00:33:35;-11160.22;;;8.17;100.00
10145;BME280;5113;41.822;23.564;2023-02-28T00:36:42;-11164.16;;;8.31;100.00
10145;BME280;5113;41.822;23.564;2023-02-28T00:39:51;-11165.56;;;8.36;100.00
10145;BME280;5113;41.822;23.564;2023-02-28T00:42:57;-11166.81;;;8.41;100.00
10145;BME280;5113;41.822;23.564;2023-02-28T00:46:04;-11164.84;;;8.34;100.00
10145;BME280;5113;41.822;23.564;2023-02-28T00:49:10;-11162.19;;;8.24;100.00
10145;BME280;5113;41.822;23.564;2023-02-28T00:52:17;-11162.75;;;8.26;100.00
10145;BME280;5113;41.822;23.564;2023-02-28T00:55:23;-11162.47;;;8.25;100.00
10145;BME280;5113;41.822;23.564;2023-02-28T00:58:29;-11160.78;;;8.19;100.00
10145;BME280;5113;41.822;23.564;2023-02-28T01:01:35;-11151.91;;;7.87;100.00
10145;BME280;5113;41.822;23.564;2023-02-28T01:04:42;-11152.19;;;7.88;100.00
10145;BME280;5113;41.822;23.564;2023-02-28T01:07:49;-11155.44;;;8.00;100.00
10145;BME280;5113;41.822;23.564;2023-02-28T01:10:56;-11153.47;;;7.92;100.00
10145;BME280;5113;41.822;23.564;2023-02-28T01:14:02;-11157.41;;;8.07;100.00
10145;BME280;5113;41.822;23.564;2023-02-28T01:17:09;-11152.75;;;7.90;100.00
10145;BME280;5113;41.822;23.564;2023-02-28T01:20:16;-11146.00;;;7.66;100.00
10145;BME280;5113;41.822;23.564;2023-02-28T01:23:24;-11154.59;;;7.97;100.00
10145;BME280;5113;41.822;23.564;2023-02-28T01:26:30;-11139.00;;;7.40;100.00
10145;BME280;5113;41.822;23.564;2023-02-28T01:29:37;-11139.56;;;7.42;100.00
10145;BME280;5113;41.822;23.564;2023-02-28T01:32:43;-11143.78;;;7.57;100.00
10145;BME280;5113;41.822;23.564;2023-02-28T01:35:56;-11138.56;;;7.39;100.00
10145;BME280;5113;41.822;23.564;2023-02-28T01:39:04;-11145.31;;;7.63;100.00
10145;BME280;5113;41.822;23.564;2023-02-28T01:42:11;-11151.63;;;7.86;100.00
10145;BME280;5113;41.822;23.564;2023-02-28T01:45:22;-11155.28;;;7.99;100.00
10145;BME280;5113;41.822;23.564;2023-02-28T01:48:32;-11153.75;;;7.93;100.00
10145;BME280;5113;41.822;23.564;2023-02-28T01:51:43;-11147.56;;;7.71;100.00
10145;BME280;5113;41.822;23.564;2023-02-28T01:54:55;-11138.16;;;7.37;100.00
10145;BME280;5113;41.822;23.564;2023-02-28T01:58:04;-11144.75;;;7.61;100.00
10145;BME280;5113;41.822;23.564;2023-02-28T02:01:11;-11145.31;;;7.63;100.00
10145;BME280;5113;41.822;23.564;2023-02-28T02:04:31;-11140.53;;;7.46;100.00
10145;BME280;5113;41.822;23.564;2023-02-28T02:07:40;-11142.50;;;7.53;100.00
10145;BME280;5113;41.822;23.564;2023-02-28T02:10:50;-11147.28;;;7.70;100.00
10145;BME280;5113;41.822;23.564;2023-02-28T02:14:30;-11148.13;;;7.73;100.00
10145;BME280;5113;41.822;23.564;2023-02-28T02:17:40;-11145.59;;;7.64;100.00
10145;BME280;5113;41.822;23.564;2023-02-28T02:25:11;-11142.78;;;7.54;100.00
10145;BME280;5113;41.822;23.564;2023-02-28T02:28:37;-11140.53;;;7.46;100.00
10145;BME280;5113;41.822;23.564;2023-02-28T02:32:01;-11138.84;;;7.40;100.00
10145;BME280;5113;41.822;23.564;2023-02-28T02:35:20;-11140.97;;;7.47;100.00
10145;BME280;5113;41.822;23.564;2023-02-28T02:38:33;-11139.13;;;7.41;100.00
10145;BME280;5113;41.822;23.564;2023-02-28T02:41:45;-11138.44;;;7.38;100.00
10145;BME280;5113;41.822;23.564;2023-02-28T02:44:59;-11135.47;;;7.27;100.00
10145;BME280;5113;41.822;23.564;2023-02-28T02:48:09;-11143.22;;;7.55;100.00
10145;BME280;5113;41.822;23.564;2023-02-28T02:51:19;-11140.25;;;7.45;100.00
10145;BME280;5113;41.822;23.564;2023-02-28T02:54:28;-11140.81;;;7.47;100.00
10145;BME280;5113;41.822;23.564;2023-02-28T02:57:42;-11133.66;;;7.21;100.00
10145;BME280;5113;41.822;23.564;2023-02-28T03:00:51;-11107.53;;;6.26;100.00
10145;BME280;5113;41.822;23.564;2023-02-28T03:04:01;-11101.50;;;6.05;100.00
10145;BME280;5113;41.822;23.564;2023-02-28T03:07:10;-11106.28;;;6.22;100.00
10145;BME280;5113;41.822;23.564;2023-02-28T03:10:29;-11101.06;;;6.03;100.00
10145;BME280;5113;41.822;23.564;2023-02-28T03:13:52;-11102.47;;;6.08;100.00
10145;BME280;5113;41.822;23.564;2023-02-28T03:17:14;-11108.94;;;6.32;100.00
10145;BME280;5113;41.822;23.564;2023-02-28T03:20:35;-11106.00;;;6.21;100.00
10145;BME280;5113;41.822;23.564;2023-02-28T03:23:53;-11111.75;;;6.42;100.00
10145;BME280;5113;41.822;23.564;2023-02-28T03:27:06;-11123.53;;;6.84;100.00
10145;BME280;5113;41.822;23.564;2023-02-28T03:30:20;-11127.34;;;6.98;100.00
10145;BME280;5113;41.822;23.564;2023-02-28T03:33:32;-11130.56;;;7.10;100.00
10145;BME280;5113;41.822;23.564;2023-02-28T03:36:45;-11132.94;;;7.18;100.00
10145;BME280;5113;41.822;23.564;2023-02-28T03:39:58;-11129.59;;;7.06;100.00
10145;BME280;5113;41.822;23.564;2023-02-28T03:43:09;-11130.13;;;7.08;100.00
10145;BME280;5113;41.822;23.564;2023-02-28T03:46:21;-11132.94;;;7.18;100.00
10145;BME280;5113;41.822;23.564;2023-02-28T03:49:32;-11126.22;;;6.94;100.00
10145;BME280;5113;41.822;23.564;2023-02-28T03:52:44;-11125.66;;;6.92;100.00
10145;BME280;5113;41.822;23.564;2023-02-28T03:55:58;-11118.91;;;6.68;100.00
10145;BME280;5113;41.822;23.564;2023-02-28T03:59:07;-11107.69;;;6.27;100.00
10145;BME280;5113;41.822;23.564;2023-02-28T04:02:17;-11110.34;;;6.37;100.00
10145;BME280;5113;41.822;23.564;2023-02-28T04:05:23;-11103.75;;;6.13;100.00
10145;BME280;5113;41.822;23.564;2023-02-28T04:08:29;-11106.97;;;6.24;100.00
10145;BME280;5113;41.822;23.564;2023-02-28T04:11:38;-11112.72;;;6.45;100.00
10145;BME280;5113;41.822;23.564;2023-02-28T04:14:45;-11124.81;;;6.89;100.00
10145;BME280;5113;41.822;23.564;2023-02-28T04:17:52;-11124.81;;;6.89;100.00
10145;BME280;5113;41.822;23.564;2023-02-28T04:21:00;-11114.00;;;6.50;100.00
10145;BME280;5113;41.822;23.564;2023-02-28T04:24:07;-11125.09;;;6.90;100.00
10145;BME280;5113;41.822;23.564;2023-02-28T04:27:20;-11125.38;;;6.91;100.00
10145;BME280;5113;41.822;23.564;2023-02-28T04:30:26;-11128.19;;;7.01;100.00
10145;BME280;5113;41.822;23.564;2023-02-28T04:33:34;-11130.41;;;7.09;100.00
10145;BME280;5113;41.822;23.564;2023-02-28T04:36:41;-11131.41;;;7.13;100.00
10145;BME280;5113;41.822;23.564;2023-02-28T04:39:47;-11127.63;;;6.99;100.00
10145;BME280;5113;41.822;23.564;2023-02-28T04:42:55;-11130.13;;;7.08;100.00
10145;BME280;5113;41.822;23.564;2023-02-28T04:46:03;-11122.84;;;6.82;100.00
10145;BME280;5113;41.822;23.564;2023-02-28T04:49:11;-11110.34;;;6.37;100.00
10145;BME280;5113;41.822;23.564;2023-02-28T04:52:17;-11097.69;;;5.91;100.00
10145;BME280;5113;41.822;23.564;2023-02-28T04:55:24;-11101.63;;;6.05;100.00
10145;BME280;5113;41.822;23.564;2023-02-28T04:58:32;-11112.03;;;6.43;100.00
10145;BME280;5113;41.822;23.564;2023-02-28T05:01:39;-11122.97;;;6.82;100.00
10145;BME280;5113;41.822;23.564;2023-02-28T05:04:45;-11125.94;;;6.93;100.00
10145;BME280;5113;41.822;23.564;2023-02-28T05:07:52;-11122.97;;;6.82;100.00
10145;BME280;5113;41.822;23.564;2023-02-28T05:10:58;-11127.19;;;6.97;100.00
10145;BME280;5113;41.822;23.564;2023-02-28T05:14:10;-11111.19;;;6.40;100.00
10145;BME280;5113;41.822;23.564;2023-02-28T05:17:17;-11112.44;;;6.44;100.00
10145;BME280;5113;41.822;23.564;2023-02-28T05:20:23;-11120.59;;;6.74;100.00
10145;BME280;5113;41.822;23.564;2023-02-28T05:23:30;-11122.41;;;6.80;100.00
10145;BME280;5113;41.822;23.564;2023-02-28T05:26:38;-11114.56;;;6.52;100.00
10145;BME280;5113;41.822;23.564;2023-02-28T05:29:46;-11123.25;;;6.83;100.00
10145;BME280;5113;41.822;23.564;2023-02-28T05:32:52;-11118.63;;;6.67;100.00
10145;BME280;5113;41.822;23.564;2023-02-28T05:35:59;-11115.97;;;6.57;100.00
10145;BME280;5113;41.822;23.564;2023-02-28T05:39:06;-11116.38;;;6.58;100.00
10145;BME280;5113;41.822;23.564;2023-02-28T05:42:17;-11115.25;;;6.54;100.00
10145;BME280;5113;41.822;23.564;2023-02-28T05:45:25;-11127.19;;;6.97;100.00
10145;BME280;5113;41.822;23.564;2023-02-28T05:48:32;-11117.09;;;6.61;100.00
10145;BME280;5113;41.822;23.564;2023-02-28T05:51:39;-11118.34;;;6.66;100.00
10145;BME280;5113;41.822;23.564;2023-02-28T05:54:46;-11108.94;;;6.32;100.00
10145;BME280;5113;41.822;23.564;2023-02-28T05:57:52;-11113.56;;;6.48;100.00
10145;BME280;5113;41.822;23.564;2023-02-28T06:01:18;-11127.91;;;7.00;100.00
10145;BME280;5113;41.822;23.564;2023-02-28T06:04:25;-11121.72;;;6.78;100.00
10145;BME280;5113;41.822;23.564;2023-02-28T06:07:36;-11119.19;;;6.69;100.00
10145;BME280;5113;41.822;23.564;2023-02-28T06:10:42;-11118.63;;;6.67;100.00
10145;BME280;5113;41.822;23.564;2023-02-28T06:13:48;-11125.38;;;6.91;100.00
10145;BME280;5113;41.822;23.564;2023-02-28T06:16:56;-11132.66;;;7.17;100.00
10145;BME280;5113;41.822;23.564;2023-02-28T06:20:04;-11137.44;;;7.35;100.00
10145;BME280;5113;41.822;23.564;2023-02-28T06:23:10;-11141.38;;;7.49;100.00
10145;BME280;5113;41.822;23.564;2023-02-28T06:26:17;-11127.06;;;6.97;100.00
10145;BME280;5113;41.822;23.564;2023-02-28T06:29:23;-11121.28;;;6.76;100.00
10145;BME280;5113;41.822;23.564;2023-02-28T06:32:31;-11133.78;;;7.21;100.00
10145;BME280;5113;41.822;23.564;2023-02-28T06:35:37;-11134.06;;;7.22;100.00
10145;BME280;5113;41.822;23.564;2023-02-28T06:38:44;-11138.56;;;7.39;100.00
10145;BME280;5113;41.822;23.564;2023-02-28T06:41:53;-11143.62;;;7.57;100.00
10145;BME280;5113;41.822;23.564;2023-02-28T06:45:00;-11143.91;;;7.58;100.00
10145;BME280;5113;41.822;23.564;2023-02-28T06:48:09;-11152.91;;;7.90;100.00
10145;BME280;5113;41.822;23.564;2023-02-28T06:51:18;-11150.50;;;7.82;100.00
10145;BME280;5113;41.822;23.564;2023-02-28T06:54:25;-11136.88;;;7.33;100.00
10145;BME280;5113;41.822;23.564;2023-02-28T06:57:33;-11131.53;;;7.13;100.00
10145;BME280;5113;41.822;23.564;2023-02-28T07:00:40;-11149.53;;;7.78;100.00
10145;BME280;5113;41.822;23.564;2023-02-28T07:03:48;-11150.94;;;7.83;100.00
10145;BME280;5113;41.822;23.564;2023-02-28T07:06:57;-11154.72;;;7.97;100.00
10145;BME280;5113;41.822;23.564;2023-02-28T07:10:04;-11147.84;;;7.72;100.00
10145;BME280;5113;41.822;23.564;2023-02-28T07:13:11;-11159.94;;;8.16;100.00
10145;BME280;5113;41.822;23.564;2023-02-28T07:16:18;-11145.59;;;7.64;100.00
10145;BME280;5113;41.822;23.564;2023-02-28T07:19:26;-11151.50;;;7.85;100.00
10145;BME280;5113;41.822;23.564;2023-02-28T07:22:33;-11174.13;;;8.67;100.00
10145;BME280;5113;41.822;23.564;2023-02-28T07:25:39;-11165.00;;;8.34;100.00
10145;BME280;5113;41.822;23.564;2023-02-28T07:28:47;-11175.09;;;8.71;100.00
10145;BME280;5113;41.822;23.564;2023-02-28T07:31:53;-11174.81;;;8.70;100.00
10145;BME280;5113;41.822;23.564;2023-02-28T07:35:01;-11185.94;;;9.10;100.00
10145;BME280;5113;41.822;23.564;2023-02-28T07:38:08;-11182.97;;;8.99;100.00
10145;BME280;5113;41.822;23.564;2023-02-28T07:41:15;-11188.19;;;9.18;100.00
10145;BME280;5113;41.822;23.564;2023-02-28T07:44:21;-11204.34;;;9.76;100.00
10145;BME280;5113;41.822;23.564;2023-02-28T07:47:28;-11193.25;;;9.36;100.00
10145;BME280;5113;41.822;23.564;2023-02-28T07:50:36;-11204.78;;;9.78;100.00
10145;BME280;5113;41.822;23.564;2023-02-28T07:53:43;-11212.66;;;10.06;100.00
10145;BME280;5113;41.822;23.564;2023-02-28T07:56:49;-11217.16;;;10.22;100.00
10145;BME280;5113;41.822;23.564;2023-02-28T07:59:55;-11211.53;;;10.02;100.00
10145;BME280;5113;41.822;23.564;2023-02-28T08:03:01;-11218.84;;;10.29;100.00
10145;BME280;5113;41.822;23.564;2023-02-28T08:06:16;-11234.03;;;10.83;100.00
10145;BME280;5113;41.822;23.564;2023-02-28T08:09:22;-11228.69;;;10.64;100.00
10145;BME280;5113;41.822;23.564;2023-02-28T08:12:29;-11218.41;;;10.27;100.00
10145;BME280;5113;41.822;23.564;2023-02-28T08:15:36;-11213.78;;;10.10;100.00
10145;BME280;5113;41.822;23.564;2023-02-28T08:18:42;-11243.75;;;11.18;100.00
10145;BME280;5113;41.822;23.564;2023-02-28T08:21:50;-11223.06;;;10.44;100.00
10145;BME280;5113;41.822;23.564;2023-02-28T08:24:57;-11235.72;;;10.89;100.00
10145;BME280;5113;41.822;23.564;2023-02-28T08:28:04;-11227.56;;;10.60;100.00
10145;BME280;5113;41.822;23.564;2023-02-28T08:31:12;-11249.22;;;11.38;100.00
10145;BME280;5113;41.822;23.564;2023-02-28T08:34:19;-11265.28;;;11.96;100.00
10145;BME280;5113;41.822;23.564;2023-02-28T08:37:27;-11255.84;;;11.62;100.00
10145;BME280;5113;41.822;23.564;2023-02-28T08:40:34;-11261.47;;;11.82;100.00
10145;BME280;5113;41.822;23.564;2023-02-28T08:43:40;-11257.81;;;11.69;100.00
10145;BME280;5113;41.822;23.564;2023-02-28T08:46:47;-11262.16;;;11.85;100.00
10145;BME280;5113;41.822;23.564;2023-02-28T08:49:53;-11270.47;;;12.15;100.00
10145;BME280;5113;41.822;23.564;2023-02-28T08:53:01;-11265.97;;;11.99;100.00
10145;BME280;5113;41.822;23.564;2023-02-28T08:56:08;-11265.41;;;11.97;100.00
10145;BME280;5113;41.822;23.564;2023-02-28T08:59:15;-11247.81;;;11.33;100.00
10145;BME280;5113;41.822;23.564;2023-02-28T09:02:21;-11266.97;;;12.02;100.00
10145;BME280;5113;41.822;23.564;2023-02-28T09:05:27;-11249.22;;;11.38;100.00
10145;BME280;5113;41.822;23.564;2023-02-28T09:08:36;-11255.69;;;11.62;100.00
10145;BME280;5113;41.822;23.564;2023-02-28T09:11:42;-11268.50;;;12.08;100.00
10145;BME280;5113;41.822;23.564;2023-02-28T09:14:48;-11263.44;;;11.89;100.00
10145;BME280;5113;41.822;23.564;2023-02-28T09:17:54;-11258.38;;;11.71;100.00
10145;BME280;5113;41.822;23.564;2023-02-28T09:21:03;-11260.34;;;11.78;100.00
10145;BME280;5113;41.822;23.564;2023-02-28T09:24:11;-11272.16;;;12.21;100.00
10145;BME280;5113;41.822;23.564;2023-02-28T09:27:18;-11277.22;;;12.39;99.63
10145;BME280;5113;41.822;23.564;2023-02-28T09:30:25;-11282.00;;;12.56;100.00
10145;BME280;5113;41.822;23.564;2023-02-28T09:33:31;-11280.88;;;12.52;96.38
10145;BME280;5113;41.822;23.564;2023-02-28T09:36:39;-11278.63;;;12.44;99.16
10145;BME280;5113;41.822;23.564;2023-02-28T09:39:51;-11281.16;;;12.53;98.26
10145;BME280;5113;41.822;23.564;2023-02-28T09:42:59;-11273.56;;;12.26;97.05
10145;BME280;5113;41.822;23.564;2023-02-28T09:46:11;-11284.84;;;12.67;100.00
10145;BME280;5113;41.822;23.564;2023-02-28T09:49:24;-11291.31;;;12.90;99.54
10145;BME280;5113;41.822;23.564;2023-02-28T09:52:32;-11281.72;;;12.55;95.82
10145;BME280;5113;41.822;23.564;2023-02-28T09:55:43;-11282.16;;;12.57;100.00
10145;BME280;5113;41.822;23.564;2023-02-28T09:58:54;-11279.63;;;12.48;99.92
10145;BME280;5113;41.822;23.564;2023-02-28T10:02:08;-11277.78;;;12.41;100.00
10145;BME280;5113;41.822;23.564;2023-02-28T10:05:18;-11299.19;;;13.18;100.00
10145;BME280;5113;41.822;23.564;2023-02-28T10:08:29;-11290.88;;;12.88;100.00
10145;BME280;5113;41.822;23.564;2023-02-28T10:11:39;-11295.81;;;13.06;100.00
10145;BME280;5113;41.822;23.564;2023-02-28T10:14:49;-11302.84;;;13.32;100.00
10145;BME280;5113;41.822;23.564;2023-02-28T10:18:00;-11300.59;;;13.24;100.00
10145;BME280;5113;41.822;23.564;2023-02-28T10:21:18;-11298.06;;;13.14;100.00
10145;BME280;5113;41.822;23.564;2023-02-28T10:24:30;-11301.44;;;13.27;100.00
10145;BME280;5113;41.822;23.564;2023-02-28T10:27:40;-11303.13;;;13.33;100.00
10145;BME280;5113;41.822;23.564;2023-02-28T10:30:48;-11292.16;;;12.93;100.00
10145;BME280;5113;41.822;23.564;2023-02-28T10:33:55;-11301.03;;;13.25;100.00
10145;BME280;5113;41.822;23.564;2023-02-28T10:37:03;-11295.81;;;13.06;100.00
10145;BME280;5113;41.822;23.564;2023-02-28T10:40:27;-11275.69;;;12.34;100.00
10145;BME280;5113;41.822;23.564;2023-02-28T10:43:36;-11288.47;;;12.80;100.00
10145;BME280;5113;41.822;23.564;2023-02-28T10:46:43;-11295.66;;;13.06;100.00
10145;BME280;5113;41.822;23.564;2023-02-28T10:49:50;-11294.41;;;13.01;100.00
10145;BME280;5113;41.822;23.564;2023-02-28T10:53:07;-11308.34;;;13.51;100.00
10145;BME280;5113;41.822;23.564;2023-02-28T10:56:18;-11312.72;;;13.67;100.00
10145;BME280;5113;41.822;23.564;2023-02-28T10:59:29;-11312.84;;;13.68;100.00
10145;BME280;5113;41.822;23.564;2023-02-28T11:06:07;-11315.53;;;13.77;100.00
10145;BME280;5113;41.822;23.564;2023-02-28T11:09:22;-11320.72;;;13.96;100.00
10145;BME280;5113;41.822;23.564;2023-02-28T11:12:36;-11313.56;;;13.70;100.00
10145;BME280;5113;41.822;23.564;2023-02-28T11:15:59;-11316.50;;;13.81;100.00
10145;BME280;5113;41.822;23.564;2023-02-28T11:19:18;-11311.16;;;13.62;100.00
10145;BME280;5113;41.822;23.564;2023-02-28T11:22:29;-11309.03;;;13.54;100.00
10145;BME280;5113;41.822;23.564;2023-02-28T11:25:38;-11298.63;;;13.16;100.00
10145;BME280;5113;41.822;23.564;2023-02-28T11:28:44;-11305.94;;;13.43;100.00
10145;BME280;5113;41.822;23.564;2023-02-28T11:32:12;-11310.44;;;13.59;100.00
10145;BME280;5113;41.822;23.564;2023-02-28T11:35:24;-11307.91;;;13.50;100.00
10145;BME280;5113;41.822;23.564;2023-02-28T11:38:34;-11309.75;;;13.57;100.00
10145;BME280;5113;41.822;23.564;2023-02-28T11:41:56;-11306.09;;;13.43;100.00
10145;BME280;5113;41.822;23.564;2023-02-28T11:45:22;-11300.59;;;13.24;100.00
10145;BME280;5113;41.822;23.564;2023-02-28T11:48:45;-11299.63;;;13.20;100.00
10145;BME280;5113;41.822;23.564;2023-02-28T11:51:56;-11305.38;;;13.41;100.00
10145;BME280;5113;41.822;23.564;2023-02-28T11:55:14;-11308.63;;;13.52;100.00
10145;BME280;5113;41.822;23.564;2023-02-28T11:58:35;-11303.28;;;13.33;100.00
10145;BME280;5113;41.822;23.564;2023-02-28T12:02:09;-11312.56;;;13.67;100.00
10145;BME280;5113;41.822;23.564;2023-02-28T12:05:29;-11305.25;;;13.40;100.00
10145;BME280;5113;41.822;23.564;2023-02-28T12:08:49;-11299.19;;;13.18;100.00
10145;BME280;5113;41.822;23.564;2023-02-28T12:12:01;-11295.81;;;13.06;100.00
10145;BME280;5113;41.822;23.564;2023-02-28T12:15:28;-11299.75;;;13.20;100.00
10145;BME280;5113;41.822;23.564;2023-02-28T12:18:52;-11303.28;;;13.33;100.00
10145;BME280;5113;41.822;23.564;2023-02-28T12:22:25;-11304.25;;;13.37;100.00
10145;BME280;5113;41.822;23.564;2023-02-28T12:25:50;-11302.56;;;13.31;100.00
10145;BME280;5113;41.822;23.564;2023-02-28T12:29:07;-11306.22;;;13.44;100.00
10145;BME280;5113;41.822;23.564;2023-02-28T12:32:19;-11310.31;;;13.59;100.00
10145;BME280;5113;41.822;23.564;2023-02-28T12:35:32;-11307.22;;;13.47;100.00
10145;BME280;5113;41.822;23.564;2023-02-28T12:38:45;-11300.47;;;13.23;100.00
10145;BME280;5113;41.822;23.564;2023-02-28T12:41:58;-11304.97;;;13.39;100.00
10145;BME280;5113;41.822;23.564;2023-02-28T12:45:10;-11303.13;;;13.33;100.00
10145;BME280;5113;41.822;23.564;2023-02-28T12:48:24;-11294.97;;;13.03;100.00
10145;BME280;5113;41.822;23.564;2023-02-28T12:51:32;-11301.31;;;13.26;100.00
10145;BME280;5113;41.822;23.564;2023-02-28T12:54:47;-11306.50;;;13.45;100.00
10145;BME280;5113;41.822;23.564;2023-02-28T12:58:01;-11306.66;;;13.45;100.00
10145;BME280;5113;41.822;23.564;2023-02-28T13:01:36;-11302.28;;;13.30;100.00
10145;BME280;5113;41.822;23.564;2023-02-28T13:05:45;-11300.88;;;13.25;100.00
10145;BME280;5113;41.822;23.564;2023-02-28T13:09:13;-11295.25;;;13.04;100.00
10145;BME280;5113;41.822;23.564;2023-02-28T13:12:23;-11296.78;;;13.10;100.00
10145;BME280;5113;41.822;23.564;2023-02-28T13:15:30;-11289.34;;;12.83;100.00
10145;BME280;5113;41.822;23.564;2023-02-28T13:18:43;-11288.91;;;12.81;100.00
10145;BME280;5113;41.822;23.564;2023-02-28T13:21:51;-11281.16;;;12.53;100.00
10145;BME280;5113;41.822;23.564;2023-02-28T13:24:58;-11282.28;;;12.57;100.00
10145;BME280;5113;41.822;23.564;2023-02-28T13:28:11;-11278.06;;;12.42;100.00
10145;BME280;5113;41.822;23.564;2023-02-28T13:31:19;-11274.84;;;12.31;100.00
10145;BME280;5113;41.822;23.564;2023-02-28T13:34:26;-11267.81;;;12.05;100.00
10145;BME280;5113;41.822;23.564;2023-02-28T13:37:36;-11254.72;;;11.58;100.00
10145;BME280;5113;41.822;23.564;2023-02-28T13:40:43;-11263.03;;;11.88;100.00
10145;BME280;5113;41.822;23.564;2023-02-28T13:44:05;-11251.34;;;11.46;100.00
10145;BME280;5113;41.822;23.564;2023-02-28T13:47:24;-11248.53;;;11.36;100.00
10145;BME280;5113;41.822;23.564;2023-02-28T13:50:35;-11249.94;;;11.41;100.00
10145;BME280;5113;41.822;23.564;2023-02-28T13:53:54;-11245.28;;;11.24;100.00
10145;BME280;5113;41.822;23.564;2023-02-28T13:57:17;-11239.94;;;11.05;100.00
10145;BME280;5113;41.822;23.564;2023-02-28T14:00:36;-11236.00;;;10.90;100.00
10145;BME280;5113;41.822;23.564;2023-02-28T14:04:03;-11237.13;;;10.95;100.00
10145;BME280;5113;41.822;23.564;2023-02-28T14:07:21;-11231.34;;;10.74;100.00
10145;BME280;5113;41.822;23.564;2023-02-28T14:10:31;-11232.75;;;10.79;100.00
10145;BME280;5113;41.822;23.564;2023-02-28T14:13:41;-11234.75;;;10.86;100.00
10145;BME280;5113;41.822;23.564;2023-02-28T14:16:53;-11237.84;;;10.97;100.00
10145;BME280;5113;41.822;23.564;2023-02-28T14:20:00;-11228.81;;;10.65;100.00
10145;BME280;5113;41.822;23.564;2023-02-28T14:23:14;-11227.13;;;10.58;100.00
10145;BME280;5113;41.822;23.564;2023-02-28T14:30:14;-11229.66;;;10.68;100.00
10145;BME280;5113;41.822;23.564;2023-02-28T14:33:27;-11228.25;;;10.63;100.00
10145;BME280;5113;41.822;23.564;2023-02-28T14:36:40;-11229.66;;;10.68;100.00
10145;BME280;5113;41.822;23.564;2023-02-28T14:39:47;-11229.53;;;10.67;100.00
10145;BME280;5113;41.822;23.564;2023-02-28T14:43:00;-11226.28;;;10.55;100.00
10145;BME280;5113;41.822;23.564;2023-02-28T14:46:07;-11220.66;;;10.35;100.00
10145;BME280;5113;41.822;23.564;2023-02-28T14:49:18;-11234.47;;;10.85;100.00
10145;BME280;5113;41.822;23.564;2023-02-28T14:52:27;-11233.19;;;10.80;100.00
10145;BME280;5113;41.822;23.564;2023-02-28T14:55:35;-11226.44;;;10.56;100.00
10145;BME280;5113;41.822;23.564;2023-02-28T14:58:51;-11227.28;;;10.59;100.00
10145;BME280;5113;41.822;23.564;2023-02-28T15:02:18;-11223.91;;;10.47;100.00
10145;BME280;5113;41.822;23.564;2023-02-28T15:05:28;-11223.47;;;10.45;100.00
10145;BME280;5113;41.822;23.564;2023-02-28T15:08:35;-11222.91;;;10.43;100.00
10145;BME280;5113;41.822;23.564;2023-02-28T15:11:42;-11229.53;;;10.67;100.00
10145;BME280;5113;41.822;23.564;2023-02-28T15:14:52;-11218.97;;;10.29;100.00
10145;BME280;5113;41.822;23.564;2023-02-28T15:17:59;-11214.19;;;10.12;100.00
10145;BME280;5113;41.822;23.564;2023-02-28T15:21:12;-11218.13;;;10.26;100.00
10145;BME280;5113;41.822;23.564;2023-02-28T15:24:27;-11213.50;;;10.09;100.00
10145;BME280;5113;41.822;23.564;2023-02-28T15:27:39;-11208.28;;;9.90;100.00
10145;BME280;5113;41.822;23.564;2023-02-28T15:30:57;-11208.28;;;9.90;100.00
10145;BME280;5113;41.822;23.564;2023-02-28T15:34:05;-11207.44;;;9.87;100.00
10145;BME280;5113;41.822;23.564;2023-02-28T15:37:33;-11208.00;;;9.89;100.00
10145;BME280;5113;41.822;23.564;2023-02-28T15:40:45;-11198.03;;;9.53;100.00
10145;BME280;5113;41.822;23.564;2023-02-28T15:44:16;-11202.09;;;9.68;100.00
10145;BME280;5113;41.822;23.564;2023-02-28T15:47:24;-11200.69;;;9.63;100.00
10145;BME280;5113;41.822;23.564;2023-02-28T15:50:32;-11203.50;;;9.73;100.00
10145;BME280;5113;41.822;23.564;2023-02-28T15:53:46;-11199.16;;;9.57;100.00
10145;BME280;5113;41.822;23.564;2023-02-28T15:56:55;-11198.72;;;9.56;100.00
10145;BME280;5113;41.822;23.564;2023-02-28T16:00:03;-11195.34;;;9.44;100.00
10145;BME280;5113;41.822;23.564;2023-02-28T16:03:23;-11193.66;;;9.38;100.00
10145;BME280;5113;41.822;23.564;2023-02-28T16:06:35;-11187.91;;;9.17;100.00
10145;BME280;5113;41.822;23.564;2023-02-28T16:09:43;-11182.97;;;8.99;100.00
10145;BME280;5113;41.822;23.564;2023-02-28T16:12:49;-11191.56;;;9.30;100.00
10145;BME280;5113;41.822;23.564;2023-02-28T16:15:55;-11185.78;;;9.09;100.00
10145;BME280;5113;41.822;23.564;2023-02-28T16:19:01;-11188.03;;;9.17;100.00
10145;BME280;5113;41.822;23.564;2023-02-28T16:22:08;-11181.84;;;8.95;100.00
10145;BME280;5113;41.822;23.564;2023-02-28T16:25:17;-11186.78;;;9.13;100.00
10145;BME280;5113;41.822;23.564;2023-02-28T16:28:30;-11185.22;;;9.07;100.00
10145;BME280;5113;41.822;23.564;2023-02-28T16:31:38;-11180.72;;;8.91;100.00
10145;BME280;5113;41.822;23.564;2023-02-28T16:34:44;-11179.03;;;8.85;100.00
10145;BME280;5113;41.822;23.564;2023-02-28T16:37:51;-11175.94;;;8.74;100.00
10145;BME280;5113;41.822;23.564;2023-02-28T16:41:00;-11183.25;;;9.00;100.00
10145;BME280;5113;41.822;23.564;2023-02-28T16:44:11;-11182.41;;;8.97;100.00